Time;durP1;ratioP1;P1;durP2;ratioP2;P2;SDS_P1;SDS_P2;PMS_P1;PMS_P2;Temp;Humidity;BMP_temperature;BMP_pressure;BME280_temperature;BME280_humidity;BME280_pressure;Samples;Min_cycle;Max_cycle;Signal;HPM_P1;HPM_P2
2021/11/18 00:01:34;;;;;;;25.40;15.07;;;;;;;;;;5072901;28;20025;-67
2021/11/18 00:04:00;;;;;;;25.58;14.88;;;;;;;;;;5072152;28;20048;-66
2021/11/18 00:06:26;;;;;;;27.73;15.25;;;;;;;;;;5073008;28;20471;-66
2021/11/18 00:08:52;;;;;;;23.95;13.35;;;;;;;;;;5073125;28;20111;-66
2021/11/18 00:11:20;;;;;;;18.92;11.70;;;;;;;;;;5071923;28;20032;-66
2021/11/18 00:13:48;;;;;;;27.45;13.68;;;;;;;;;;5070925;28;20077;-67
2021/11/18 00:16:14;;;;;;;23.92;14.18;;;;;;;;;;5072808;28;20028;-67
2021/11/18 00:18:40;;;;;;;19.13;10.85;;;;;;;;;;5072592;28;20397;-65
2021/11/18 00:21:18;;;;;;;23.77;13.43;;;;;;;;;;5072782;28;20100;-65
2021/11/18 00:23:46;;;;;;;22.42;11.98;;;;;;;;;;5071596;28;20043;-65
2021/11/18 00:26:12;;;;;;;23.38;12.63;;;;;;;;;;5072616;28;20047;-66
2021/11/18 00:28:38;;;;;;;21.52;13.07;;;;;;;;;;5072222;28;20117;-65
2021/11/18 00:31:07;;;;;;;21.02;13.63;;;;;;;;;;5071076;28;20031;-65
2021/11/18 00:33:33;;;;;;;20.38;11.10;;;;;;;;;;5071790;28;20016;-65
2021/11/18 00:35:59;;;;;;;22.90;12.95;;;;;;;;;;5072372;28;20024;-65
2021/11/18 00:38:25;;;;;;;22.98;13.80;;;;;;;;;;5070941;28;20437;-65
2021/11/18 00:40:52;;;;;;;18.30;10.98;;;;;;;;;;5072109;28;20031;-66
2021/11/18 00:43:18;;;;;;;16.02;9.82;;;;;;;;;;5071235;28;20452;-66
2021/11/18 00:45:45;;;;;;;15.65;9.85;;;;;;;;;;5085601;28;20032;-66
2021/11/18 00:48:12;;;;;;;25.83;13.48;;;;;;;;;;5090905;28;20028;-66
2021/11/18 00:50:39;;;;;;;20.80;12.18;;;;;;;;;;5092101;28;20077;-66
2021/11/18 00:53:06;;;;;;;22.75;11.57;;;;;;;;;;5091594;28;20390;-66
2021/11/18 00:55:32;;;;;;;22.90;13.68;;;;;;;;;;5092141;28;20027;-66
2021/11/18 00:57:58;;;;;;;22.95;13.20;;;;;;;;;;5092013;28;20054;-66
2021/11/18 01:00:26;;;;;;;22.45;12.10;;;;;;;;;;5092145;28;20028;-66
2021/11/18 01:02:52;;;;;;;15.68;10.40;;;;;;;;;;5105005;22;20040;-70
2021/11/18 01:05:20;;;;;;;23.15;11.15;;;;;;;;;;5092209;28;20053;-71
2021/11/18 01:07:46;;;;;;;15.57;9.40;;;;;;;;;;5090733;28;20035;-71
2021/11/18 01:10:14;;;;;;;25.38;12.82;;;;;;;;;;5090673;28;20024;-71
2021/11/18 01:12:41;;;;;;;26.60;13.07;;;;;;;;;;5091022;28;20111;-71
2021/11/18 01:15:09;;;;;;;17.25;10.05;;;;;;;;;;5090643;28;20021;-70
2021/11/18 01:17:35;;;;;;;21.40;11.88;;;;;;;;;;5090659;28;20024;-70
2021/11/18 01:20:02;;;;;;;17.98;11.05;;;;;;;;;;5091837;28;20028;-71
2021/11/18 01:22:31;;;;;;;19.02;11.00;;;;;;;;;;5089771;28;20028;-70
2021/11/18 01:24:57;;;;;;;16.23;10.20;;;;;;;;;;5091581;28;20028;-71
2021/11/18 01:27:23;;;;;;;18.67;9.80;;;;;;;;;;5091479;28;20051;-71
2021/11/18 01:29:49;;;;;;;19.27;9.98;;;;;;;;;;5089896;28;20020;-71
2021/11/18 01:32:15;;;;;;;17.85;10.65;;;;;;;;;;5087780;28;20035;-71
2021/11/18 01:34:41;;;;;;;23.50;12.45;;;;;;;;;;5090135;28;20035;-72
2021/11/18 01:37:07;;;;;;;22.27;10.82;;;;;;;;;;5090134;28;20444;-70
2021/11/18 01:39:34;;;;;;;15.55;9.65;;;;;;;;;;5090030;28;20032;-72
2021/11/18 01:42:00;;;;;;;17.27;9.02;;;;;;;;;;5088887;28;20024;-68
2021/11/18 01:44:28;;;;;;;16.15;9.52;;;;;;;;;;5090898;28;20107;-70
2021/11/18 01:46:54;;;;;;;14.95;9.15;;;;;;;;;;5090289;28;20101;-70
2021/11/18 01:49:20;;;;;;;16.35;9.75;;;;;;;;;;5091650;28;20063;-69
2021/11/18 01:51:49;;;;;;;14.05;8.13;;;;;;;;;;5090214;28;20052;-70
2021/11/18 01:54:16;;;;;;;16.30;9.95;;;;;;;;;;5089333;28;20521;-71
2021/11/18 01:56:43;;;;;;;18.38;8.68;;;;;;;;;;5094386;28;20072;-70
2021/11/18 01:59:09;;;;;;;18.10;8.52;;;;;;;;;;5095683;28;20024;-71
2021/11/18 02:01:35;;;;;;;21.50;10.75;;;;;;;;;;5095811;28;20028;-71
2021/11/18 02:04:06;;;;;;;17.30;8.10;;;;;;;;;;5093388;28;20394;-70
2021/11/18 02:06:32;;;;;;;;;;;;;;;;;;5094819;28;20389;-71
2021/11/18 02:08:59;;;;;;;17.85;8.90;;;;;;;;;;5095454;28;19998;-71
2021/11/18 02:11:39;;;;;;;21.98;10.05;;;;;;;;;;5095471;28;20024;-71
2021/11/18 02:14:08;;;;;;;19.67;9.57;;;;;;;;;;5094744;28;20035;-72
2021/11/18 02:16:34;;;;;;;19.92;10.07;;;;;;;;;;5095415;28;20107;-71
2021/11/18 02:19:01;;;;;;;16.88;9.52;;;;;;;;;;5095243;28;20067;-72
2021/11/18 02:21:27;;;;;;;15.75;9.05;;;;;;;;;;5095089;28;20036;-72
2021/11/18 02:23:57;;;;;;;22.50;11.25;;;;;;;;;;5094354;28;20059;-71
2021/11/18 02:26:24;;;;;;;13.65;8.90;;;;;;;;;;5094946;28;20032;-70
2021/11/18 02:28:52;;;;;;;17.10;10.80;;;;;;;;;;5095084;28;20045;-71
2021/11/18 02:31:23;;;;;;;13.27;9.25;;;;;;;;;;5094910;28;20038;-70
2021/11/18 02:33:50;;;;;;;19.08;10.88;;;;;;;;;;5093986;28;20366;-70
2021/11/18 02:36:15;;;;;;;18.95;10.82;;;;;;;;;;5094755;28;20058;-70
2021/11/18 02:38:42;;;;;;;17.35;9.57;;;;;;;;;;5093528;28;20020;-70
2021/11/18 02:41:09;;;;;;;25.58;10.77;;;;;;;;;;5094680;28;20051;-71
2021/11/18 02:43:35;;;;;;;17.02;9.43;;;;;;;;;;5093989;28;20174;-71
2021/11/18 02:46:01;;;;;;;16.13;9.57;;;;;;;;;;5093219;28;20533;-71
2021/11/18 02:48:28;;;;;;;15.63;9.18;;;;;;;;;;5094470;28;20074;-70
2021/11/18 02:50:57;;;;;;;18.30;10.15;;;;;;;;;;5094637;28;20016;-70
2021/11/18 02:53:23;;;;;;;18.70;11.13;;;;;;;;;;5093635;28;20473;-71
2021/11/18 02:55:50;;;;;;;14.85;9.50;;;;;;;;;;5093117;28;20553;-71
2021/11/18 02:58:16;;;;;;;15.93;9.57;;;;;;;;;;5093011;28;20043;-71
2021/11/18 03:00:45;;;;;;;16.90;9.55;;;;;;;;;;5094379;28;20020;-71
2021/11/18 03:03:12;;;;;;;16.10;8.73;;;;;;;;;;5093464;28;20044;-71
2021/11/18 03:05:37;;;;;;;17.60;9.13;;;;;;;;;;5094290;28;20028;-71
2021/11/18 03:08:03;;;;;;;16.55;9.18;;;;;;;;;;5092797;28;20032;-71
2021/11/18 03:10:30;;;;;;;15.38;8.95;;;;;;;;;;5092935;28;20032;-70
2021/11/18 03:12:57;;;;;;;20.58;9.73;;;;;;;;;;5093419;28;20553;-70
2021/11/18 03:15:23;;;;;;;18.00;9.77;;;;;;;;;;5093969;28;20046;-71
2021/11/18 03:17:49;;;;;;;20.48;9.32;;;;;;;;;;5091437;28;20020;-69
2021/11/18 03:20:18;;;;;;;17.05;9.63;;;;;;;;;;5092356;28;20081;-70
2021/11/18 03:22:44;;;;;;;14.43;9.75;;;;;;;;;;5091920;28;20035;-70
2021/11/18 03:25:12;;;;;;;17.45;10.63;;;;;;;;;;5093985;28;20036;-70
2021/11/18 03:27:38;;;;;;;19.25;8.95;;;;;;;;;;5092169;28;20025;-69
2021/11/18 03:30:08;;;;;;;17.10;9.07;;;;;;;;;;5094461;28;20024;-68
2021/11/18 03:32:34;;;;;;;17.77;9.45;;;;;;;;;;5092337;28;20431;-71
2021/11/18 03:35:00;;;;;;;15.68;9.65;;;;;;;;;;5095008;28;20047;-72
2021/11/18 03:37:26;;;;;;;18.85;10.00;;;;;;;;;;5095676;28;20417;-72
2021/11/18 03:39:52;;;;;;;14.73;8.13;;;;;;;;;;5095420;28;20032;-71
2021/11/18 03:42:18;;;;;;;16.80;9.95;;;;;;;;;;5093086;28;20032;-71
2021/11/18 03:44:44;;;;;;;17.23;9.48;;;;;;;;;;5092592;28;20108;-70
2021/11/18 03:47:12;;;;;;;20.25;10.63;;;;;;;;;;5093518;28;20107;-70
2021/11/18 03:49:39;;;;;;;17.02;9.60;;;;;;;;;;5092318;28;20063;-70
2021/11/18 03:52:06;;;;;;;17.00;9.43;;;;;;;;;;5092519;28;20019;-70
2021/11/18 03:54:33;;;;;;;19.67;10.20;;;;;;;;;;5093192;28;20089;-72
2021/11/18 03:56:59;;;;;;;18.50;10.35;;;;;;;;;;5091995;28;20032;-70
2021/11/18 03:59:27;;;;;;;19.17;10.82;;;;;;;;;;5093380;28;20024;-71
2021/11/18 04:01:53;;;;;;;13.52;8.90;;;;;;;;;;5093077;28;20493;-68
2021/11/18 04:04:21;;;;;;;16.77;9.52;;;;;;;;;;5092870;28;20450;-70
2021/11/18 04:06:47;;;;;;;14.18;8.77;;;;;;;;;;5093016;28;20052;-70
2021/11/18 04:09:14;;;;;;;19.15;10.85;;;;;;;;;;5091661;28;20043;-70
2021/11/18 04:11:41;;;;;;;16.27;9.95;;;;;;;;;;5091976;28;20028;-70
2021/11/18 04:14:08;;;;;;;17.77;9.90;;;;;;;;;;5092149;28;20091;-71
2021/11/18 04:16:34;;;;;;;15.30;9.65;;;;;;;;;;5093404;28;20370;-71
2021/11/18 04:19:00;;;;;;;13.95;8.65;;;;;;;;;;5092677;28;20045;-71
2021/11/18 04:21:31;;;;;;;19.20;10.32;;;;;;;;;;5093144;28;20020;-72
2021/11/18 04:23:57;;;;;;;17.38;8.02;;;;;;;;;;5090459;28;20016;-71
2021/11/18 04:26:22;;;;;;;14.57;9.18;;;;;;;;;;5091196;28;20515;-70
2021/11/18 04:28:48;;;;;;;17.73;9.05;;;;;;;;;;5092636;28;20018;-69
2021/11/18 04:31:16;;;;;;;16.10;10.45;;;;;;;;;;5091382;28;20389;-70
2021/11/18 04:33:42;;;;;;;16.80;9.43;;;;;;;;;;5091768;28;20070;-71
2021/11/18 04:36:09;;;;;;;20.10;9.40;;;;;;;;;;5092635;28;20473;-71
2021/11/18 04:38:36;;;;;;;16.52;9.82;;;;;;;;;;5091184;28;20036;-70
2021/11/18 04:41:04;;;;;;;16.67;8.90;;;;;;;;;;5091165;28;20127;-72
2021/11/18 04:43:30;;;;;;;16.40;8.32;;;;;;;;;;5091979;28;20435;-71
2021/11/18 04:45:56;;;;;;;14.50;7.90;;;;;;;;;;5092297;28;20500;-71
2021/11/18 04:48:22;;;;;;;18.35;8.77;;;;;;;;;;5091078;28;20028;-71
2021/11/18 04:50:48;;;;;;;14.05;7.20;;;;;;;;;;5091167;28;20024;-71
2021/11/18 04:53:14;;;;;;;13.45;7.70;;;;;;;;;;5090039;28;20022;-71
2021/11/18 04:55:42;;;;;;;16.80;8.20;;;;;;;;;;5091908;28;20032;-71
2021/11/18 04:58:08;;;;;;;14.50;7.30;;;;;;;;;;5091024;28;20047;-71
2021/11/18 05:00:42;;;;;;;16.73;8.38;;;;;;;;;;5092208;28;20470;-71
2021/11/18 05:03:08;;;;;;;13.38;7.82;;;;;;;;;;5091193;28;20031;-70
2021/11/18 05:05:35;;;;;;;13.80;9.00;;;;;;;;;;5092012;28;20051;-71
2021/11/18 05:08:01;;;;;;;17.85;8.35;;;;;;;;;;5090552;28;20104;-71
2021/11/18 05:10:28;;;;;;;12.38;7.85;;;;;;;;;;5090636;28;20477;-71
2021/11/18 05:12:55;;;;;;;15.77;8.15;;;;;;;;;;5091195;28;20016;-71
2021/11/18 05:15:22;;;;;;;15.80;7.50;;;;;;;;;;5092357;28;20023;-70
2021/11/18 05:17:48;;;;;;;15.73;7.97;;;;;;;;;;5091677;28;20025;-71
2021/11/18 05:20:17;;;;;;;15.05;7.15;;;;;;;;;;5091615;28;20032;-71
2021/11/18 05:22:43;;;;;;;13.00;8.23;;;;;;;;;;5090867;28;20170;-71
2021/11/18 05:25:09;;;;;;;12.57;7.18;;;;;;;;;;5091773;28;20039;-71
2021/11/18 05:27:35;;;;;;;17.98;7.60;;;;;;;;;;5091671;28;20024;-70
2021/11/18 05:30:01;;;;;;;18.95;8.70;;;;;;;;;;5090853;28;20031;-70
2021/11/18 05:32:27;;;;;;;11.13;6.65;;;;;;;;;;5090663;28;20026;-70
2021/11/18 05:34:53;;;;;;;15.60;7.30;;;;;;;;;;5091453;28;20107;-71
2021/11/18 05:37:19;;;;;;;13.02;8.18;;;;;;;;;;5091483;28;20024;-70
2021/11/18 05:39:45;;;;;;;14.82;7.82;;;;;;;;;;5091478;28;20515;-70
2021/11/18 05:42:12;;;;;;;18.15;7.70;;;;;;;;;;5089283;28;20024;-70
2021/11/18 05:44:38;;;;;;;15.48;8.02;;;;;;;;;;5091528;28;20462;-71
2021/11/18 05:47:04;;;;;;;15.05;7.25;;;;;;;;;;5091436;28;20111;-71
2021/11/18 05:49:30;;;;;;;19.55;8.70;;;;;;;;;;5091382;28;20029;-71
2021/11/18 05:51:56;;;;;;;14.52;7.80;;;;;;;;;;5091113;28;20063;-71
2021/11/18 05:54:22;;;;;;;13.48;6.63;;;;;;;;;;5090912;28;20024;-71
2021/11/18 05:56:48;;;;;;;13.82;6.18;;;;;;;;;;5089855;28;20367;-71
2021/11/18 05:59:14;;;;;;;14.75;6.60;;;;;;;;;;5091302;28;20024;-70
2021/11/18 06:01:41;;;;;;;15.93;7.45;;;;;;;;;;5090946;28;20017;-69
2021/11/18 06:04:09;;;;;;;19.08;6.68;;;;;;;;;;5090310;28;20032;-70
2021/11/18 06:06:35;;;;;;;14.38;6.78;;;;;;;;;;5088448;28;20028;-70
2021/11/18 06:09:04;;;;;;;14.88;7.03;;;;;;;;;;5089415;28;20028;-72
2021/11/18 06:11:31;;;;;;;16.02;6.50;;;;;;;;;;5089399;28;20478;-69
2021/11/18 06:13:57;;;;;;;13.65;6.68;;;;;;;;;;5089065;28;20028;-72
2021/11/18 06:16:26;;;;;;;16.33;7.30;;;;;;;;;;5089666;28;20060;-71
2021/11/18 06:18:52;;;;;;;15.60;6.63;;;;;;;;;;5088005;28;20028;-70
2021/11/18 06:21:18;;;;;;;15.00;7.32;;;;;;;;;;5089331;28;20027;-72
2021/11/18 06:23:44;;;;;;;20.23;8.20;;;;;;;;;;5075582;28;20078;-71
2021/11/18 06:26:10;;;;;;;16.77;6.65;;;;;;;;;;5091194;28;20105;-69
2021/11/18 06:28:37;;;;;;;12.02;6.32;;;;;;;;;;5090961;28;20469;-70
2021/11/18 06:31:05;;;;;;;10.05;6.13;;;;;;;;;;5090892;28;20123;-70
2021/11/18 06:33:32;;;;;;;16.90;6.25;;;;;;;;;;5090232;28;20027;-70
2021/11/18 06:35:58;;;;;;;10.18;6.03;;;;;;;;;;5090761;28;20061;-71
2021/11/18 06:38:24;;;;;;;15.90;6.72;;;;;;;;;;5089888;28;20389;-72
2021/11/18 06:40:51;;;;;;;12.50;6.15;;;;;;;;;;5090566;28;20024;-70
2021/11/18 06:43:18;;;;;;;17.35;6.32;;;;;;;;;;5092946;28;20393;-71
2021/11/18 06:45:46;;;;;;;12.90;6.15;;;;;;;;;;5094251;28;20123;-69
2021/11/18 06:48:13;;;;;;;20.10;8.10;;;;;;;;;;5094401;28;20059;-69
2021/11/18 06:50:39;;;;;;;16.10;6.38;;;;;;;;;;5094219;28;20055;-71
2021/11/18 06:53:05;;;;;;;14.50;6.00;;;;;;;;;;5093547;28;20024;-70
2021/11/18 06:55:31;;;;;;;15.27;6.57;;;;;;;;;;5092750;28;20020;-72
2021/11/18 06:57:57;;;;;;;13.38;5.47;;;;;;;;;;5094196;28;20020;-74
2021/11/18 07:00:23;;;;;;;22.67;7.40;;;;;;;;;;5092938;28;20035;-72
2021/11/18 07:02:49;;;;;;;14.57;5.93;;;;;;;;;;5113063;22;20039;-72
2021/11/18 07:05:15;;;;;;;12.18;5.20;;;;;;;;;;5092945;28;20039;-72
2021/11/18 07:07:41;;;;;;;12.98;5.60;;;;;;;;;;5092848;28;20024;-69
2021/11/18 07:10:08;;;;;;;14.23;5.38;;;;;;;;;;5092352;28;20428;-72
2021/11/18 07:12:34;;;;;;;13.85;5.28;;;;;;;;;;5091854;28;20078;-73
2021/11/18 07:15:01;;;;;;;133.07;65.68;;;;;;;;;;5092590;28;20443;-74
2021/11/18 07:17:27;;;;;;;69.55;33.97;;;;;;;;;;5093690;28;20035;-72
2021/11/18 07:19:53;;;;;;;82.50;40.40;;;;;;;;;;5093720;28;20523;-72
2021/11/18 07:22:20;;;;;;;43.38;21.30;;;;;;;;;;5093238;28;20349;-73
2021/11/18 07:24:46;;;;;;;202.48;86.20;;;;;;;;;;5093558;28;20058;-72
2021/11/18 07:27:12;;;;;;;97.05;36.85;;;;;;;;;;5093802;28;20070;-70
2021/11/18 07:29:38;;;;;;;59.85;21.48;;;;;;;;;;5094130;28;20020;-71
2021/11/18 07:32:05;;;;;;;14.70;7.03;;;;;;;;;;5092942;28;20058;-72
2021/11/18 07:34:31;;;;;;;15.07;6.13;;;;;;;;;;5092070;28;20026;-71
2021/11/18 07:36:57;;;;;;;44.42;14.82;;;;;;;;;;5093268;28;20024;-71
2021/11/18 07:39:23;;;;;;;42.42;14.95;;;;;;;;;;5091995;28;20204;-71
2021/11/18 07:41:50;;;;;;;31.85;12.95;;;;;;;;;;5093224;28;20028;-72
2021/11/18 07:44:17;;;;;;;32.65;12.88;;;;;;;;;;5089922;28;20024;-71
2021/11/18 07:46:42;;;;;;;21.85;7.88;;;;;;;;;;5093247;28;20561;-72
2021/11/18 07:49:09;;;;;;;52.95;18.10;;;;;;;;;;5091331;28;20088;-71
2021/11/18 07:51:37;;;;;;;60.67;24.13;;;;;;;;;;5091520;28;20393;-72
2021/11/18 07:54:04;;;;;;;110.60;43.38;;;;;;;;;;5091498;28;20100;-70
2021/11/18 07:56:30;;;;;;;62.65;23.98;;;;;;;;;;5091464;28;20024;-71
2021/11/18 07:58:56;;;;;;;44.42;18.08;;;;;;;;;;5092601;28;20034;-70
2021/11/18 08:01:22;;;;;;;68.28;27.98;;;;;;;;;;5093126;28;20023;-71
2021/11/18 08:03:49;;;;;;;57.72;24.95;;;;;;;;;;5091801;28;20476;-73
2021/11/18 08:06:17;;;;;;;98.22;41.50;;;;;;;;;;5093226;28;20504;-72
2021/11/18 08:08:48;;;;;;;50.63;19.02;;;;;;;;;;5092817;28;20070;-71
2021/11/18 08:11:18;;;;;;;56.40;21.75;;;;;;;;;;5092933;28;20401;-72
2021/11/18 08:13:45;;;;;;;53.25;18.88;;;;;;;;;;5092293;28;20063;-73
2021/11/18 08:16:11;;;;;;;33.03;12.70;;;;;;;;;;5092646;28;20073;-72
2021/11/18 08:18:37;;;;;;;71.30;28.95;;;;;;;;;;5092811;28;20032;-72
2021/11/18 08:21:03;;;;;;;47.47;20.13;;;;;;;;;;5093155;28;20028;-71
2021/11/18 08:23:32;;;;;;;23.35;7.80;;;;;;;;;;5090553;28;20032;-72
2021/11/18 08:25:59;;;;;;;36.05;14.18;;;;;;;;;;5092629;28;20030;-70
2021/11/18 08:28:24;;;;;;;43.45;16.48;;;;;;;;;;5090953;28;20024;-71
2021/11/18 08:30:50;;;;;;;22.15;7.38;;;;;;;;;;5092777;28;20127;-71
2021/11/18 08:33:17;;;;;;;59.20;24.33;;;;;;;;;;5090286;28;20020;-71
2021/11/18 08:35:43;;;;;;;151.43;70.22;;;;;;;;;;5092424;28;20048;-72
2021/11/18 08:38:10;;;;;;;80.57;35.95;;;;;;;;;;5092483;28;20077;-71
2021/11/18 08:40:38;;;;;;;42.47;20.25;;;;;;;;;;5092730;28;20034;-72
2021/11/18 08:43:05;;;;;;;69.13;31.65;;;;;;;;;;5091287;28;20024;-73
2021/11/18 08:45:32;;;;;;;27.95;11.63;;;;;;;;;;5091863;28;20116;-71
2021/11/18 08:47:59;;;;;;;114.55;50.42;;;;;;;;;;5090726;28;20334;-69
2021/11/18 08:50:25;;;;;;;55.25;25.58;;;;;;;;;;5092321;28;20035;-71
2021/11/18 08:52:51;;;;;;;40.63;18.10;;;;;;;;;;5090156;28;20023;-69
2021/11/18 08:55:20;;;;;;;31.90;12.23;;;;;;;;;;5092014;28;20013;-70
2021/11/18 08:57:46;;;;;;;31.75;14.90;;;;;;;;;;5092048;28;20051;-72
2021/11/18 09:00:15;;;;;;;80.13;33.80;;;;;;;;;;5091660;28;20247;-69
2021/11/18 09:02:42;;;;;;;23.92;9.77;;;;;;;;;;5089600;28;20032;-71
2021/11/18 09:05:08;;;;;;;34.92;14.38;;;;;;;;;;5092038;28;20030;-73
2021/11/18 09:07:34;;;;;;;20.63;7.97;;;;;;;;;;5091829;28;20032;-71
2021/11/18 09:09:59;;;;;;;26.70;8.82;;;;;;;;;;5091812;28;20047;-70
2021/11/18 09:12:26;;;;;;;34.20;14.40;;;;;;;;;;5091458;28;20024;-71
2021/11/18 09:14:52;;;;;;;70.38;31.25;;;;;;;;;;5091707;28;20017;-71
2021/11/18 09:17:18;;;;;;;46.35;19.30;;;;;;;;;;5091640;28;20393;-72
2021/11/18 09:19:44;;;;;;;75.63;31.52;;;;;;;;;;5087208;28;20055;-71
2021/11/18 09:22:11;;;;;;;53.33;21.98;;;;;;;;;;5088131;28;20549;-70
2021/11/18 09:24:39;;;;;;;44.08;20.13;;;;;;;;;;5084607;28;20132;-72
2021/11/18 09:27:07;;;;;;;31.23;13.77;;;;;;;;;;5071112;28;20060;-69
2021/11/18 09:29:34;;;;;;;41.90;16.95;;;;;;;;;;5069939;28;20417;-70
2021/11/18 09:32:00;;;;;;;47.83;19.98;;;;;;;;;;5071152;28;20069;-70
2021/11/18 09:34:27;;;;;;;85.53;36.40;;;;;;;;;;5070963;28;20021;-71
2021/11/18 09:36:54;;;;;;;37.47;15.18;;;;;;;;;;5071583;28;20016;-70
2021/11/18 09:39:20;;;;;;;56.38;25.40;;;;;;;;;;5071578;28;20476;-71
2021/11/18 09:41:55;;;;;;;25.52;10.85;;;;;;;;;;5071206;28;20027;-71
2021/11/18 09:44:40;;;;;;;39.60;17.48;;;;;;;;;;5071094;28;20043;-70
2021/11/18 09:47:27;;;;;;;20.33;8.75;;;;;;;;;;5091300;28;20035;-72
2021/11/18 09:50:04;;;;;;;123.25;64.90;;;;;;;;;;5091778;28;20477;-71
2021/11/18 09:52:48;;;;;;;22.92;10.15;;;;;;;;;;5090806;28;20031;-71
2021/11/18 09:55:14;;;;;;;69.50;34.85;;;;;;;;;;5089855;28;20074;-71
2021/11/18 09:57:52;;;;;;;171.05;83.78;;;;;;;;;;5091591;28;20458;-72
2021/11/18 10:00:28;;;;;;;109.22;52.97;;;;;;;;;;5091018;28;20028;-72
2021/11/18 10:03:04;;;;;;;49.65;22.95;;;;;;;;;;5090580;28;20510;-69
2021/11/18 10:05:36;;;;;;;80.38;37.38;;;;;;;;;;5090080;28;20055;-71
2021/11/18 10:08:10;;;;;;;70.88;30.27;;;;;;;;;;5090181;28;20097;-71
2021/11/18 10:10:52;;;;;;;77.45;35.03;;;;;;;;;;5083695;28;20119;-70
2021/11/18 10:13:24;;;;;;;29.65;13.80;;;;;;;;;;5089693;28;20022;-72
2021/11/18 10:15:55;;;;;;;43.40;20.67;;;;;;;;;;5085497;28;20079;-71
2021/11/18 10:18:26;;;;;;;37.30;16.05;;;;;;;;;;5073763;28;20051;-70
2021/11/18 10:20:58;;;;;;;53.22;25.02;;;;;;;;;;5074939;28;20033;-73
2021/11/18 10:23:24;;;;;;;35.22;15.50;;;;;;;;;;5074544;28;20040;-73
2021/11/18 10:25:55;;;;;;;41.08;17.13;;;;;;;;;;5074083;28;20082;-73
2021/11/18 10:28:21;;;;;;;50.75;26.75;;;;;;;;;;5073264;28;20058;-71
2021/11/18 10:30:54;;;;;;;37.13;17.85;;;;;;;;;;5074759;28;20099;-71
2021/11/18 10:33:27;;;;;;;44.97;21.98;;;;;;;;;;5074117;28;20110;-70
2021/11/18 10:36:04;;;;;;;54.25;23.95;;;;;;;;;;5074673;28;20100;-71
2021/11/18 10:38:33;;;;;;;52.63;21.63;;;;;;;;;;5073314;28;20025;-73
2021/11/18 10:41:18;;;;;;;36.47;17.25;;;;;;;;;;5074423;28;20025;-73
2021/11/18 10:44:01;;;;;;;21.95;9.90;;;;;;;;;;5073830;28;20025;-74
2021/11/18 10:46:37;;;;;;;54.00;23.92;;;;;;;;;;5093912;28;20107;-73
2021/11/18 10:49:09;;;;;;;39.85;17.83;;;;;;;;;;5094694;28;20024;-71
2021/11/18 10:52:04;;;;;;;38.60;18.30;;;;;;;;;;5094632;28;20108;-71
2021/11/18 10:54:47;;;;;;;36.17;15.55;;;;;;;;;;5092774;28;20032;-69
2021/11/18 10:57:15;;;;;;;29.10;10.25;;;;;;;;;;5094366;28;20036;-69
2021/11/18 10:59:43;;;;;;;38.08;18.17;;;;;;;;;;5093984;28;20095;-71
2021/11/18 11:02:20;;;;;;;35.08;14.18;;;;;;;;;;5092787;28;20024;-70
2021/11/18 11:04:47;;;;;;;25.27;11.40;;;;;;;;;;5091448;28;20122;-72
2021/11/18 11:07:14;;;;;;;51.85;23.23;;;;;;;;;;5091187;28;20073;-71
2021/11/18 11:09:42;;;;;;;44.83;20.52;;;;;;;;;;5092833;28;20027;-71
2021/11/18 11:12:15;;;;;;;30.67;13.65;;;;;;;;;;5092218;28;20016;-70
2021/11/18 11:14:49;;;;;;;31.48;16.23;;;;;;;;;;5092957;28;20022;-71
2021/11/18 11:17:22;;;;;;;55.13;24.20;;;;;;;;;;5093979;28;20020;-70
2021/11/18 11:19:54;;;;;;;26.50;11.05;;;;;;;;;;5093934;28;20035;-70
2021/11/18 11:22:43;;;;;;;23.00;8.18;;;;;;;;;;5093102;28;20039;-70
2021/11/18 11:25:12;;;;;;;67.82;32.05;;;;;;;;;;5085025;28;20046;-69
2021/11/18 11:27:38;;;;;;;35.60;14.80;;;;;;;;;;5092155;28;20067;-71
2021/11/18 11:30:11;;;;;;;31.42;14.52;;;;;;;;;;5090518;28;20055;-70
2021/11/18 11:33:09;;;;;;;19.95;9.23;;;;;;;;;;5090528;28;20028;-70
2021/11/18 11:35:54;;;;;;;21.15;10.93;;;;;;;;;;5058281;28;20044;-71
2021/11/18 11:38:20;;;;;;;26.88;10.32;;;;;;;;;;5090689;28;20116;-70
2021/11/18 11:41:04;;;;;;;36.80;17.38;;;;;;;;;;5092250;28;20055;-70
2021/11/18 11:43:43;;;;;;;25.35;10.00;;;;;;;;;;5089812;28;20020;-69
2021/11/18 11:46:18;;;;;;;31.30;15.88;;;;;;;;;;5090866;28;20024;-71
2021/11/18 11:48:44;;;;;;;38.75;17.35;;;;;;;;;;5090698;28;20393;-70
2021/11/18 11:51:28;;;;;;;29.00;12.88;;;;;;;;;;5091865;28;20028;-70
2021/11/18 11:54:10;;;;;;;28.65;12.13;;;;;;;;;;5091121;28;20548;-69
2021/11/18 11:56:37;;;;;;;35.58;16.52;;;;;;;;;;5092215;28;20038;-71
2021/11/18 11:59:06;;;;;;;30.10;12.65;;;;;;;;;;5091625;28;20024;-70
2021/11/18 12:01:41;;;;;;;26.10;11.73;;;;;;;;;;5092078;28;20020;-70
2021/11/18 12:04:07;;;;;;;19.13;7.88;;;;;;;;;;5089390;28;20032;-71
2021/11/18 12:06:46;;;;;;;21.38;8.55;;;;;;;;;;5091821;28;20036;-70
2021/11/18 12:09:15;;;;;;;30.67;14.63;;;;;;;;;;5091744;28;20493;-71
2021/11/18 12:11:50;;;;;;;30.40;14.07;;;;;;;;;;5090394;28;20024;-69
2021/11/18 12:14:22;;;;;;;21.35;10.07;;;;;;;;;;5090862;28;20027;-70
2021/11/18 12:16:55;;;;;;;21.90;8.77;;;;;;;;;;5090814;28;20416;-71
2021/11/18 12:19:21;;;;;;;20.23;8.00;;;;;;;;;;5091491;28;20107;-72
2021/11/18 12:21:48;;;;;;;30.10;11.05;;;;;;;;;;5092053;28;20024;-71
2021/11/18 12:24:14;;;;;;;21.58;8.68;;;;;;;;;;5091908;28;20016;-71
2021/11/18 12:26:54;;;;;;;25.10;10.98;;;;;;;;;;5091375;28;20023;-73
2021/11/18 12:29:29;;;;;;;33.33;15.63;;;;;;;;;;5092701;28;20028;-73
2021/11/18 12:32:05;;;;;;;23.13;9.80;;;;;;;;;;5091458;28;20012;-75
2021/11/18 12:34:49;;;;;;;23.50;11.55;;;;;;;;;;5092631;28;20077;-75
2021/11/18 12:37:21;;;;;;;21.40;9.55;;;;;;;;;;5091289;28;20039;-75
2021/11/18 12:39:56;;;;;;;25.70;11.52;;;;;;;;;;5092636;28;20032;-73
2021/11/18 12:42:28;;;;;;;10.63;5.85;;;;;;;;;;5091580;28;20028;-73
2021/11/18 12:45:00;;;;;;;28.02;10.05;;;;;;;;;;5092109;28;20039;-74
2021/11/18 12:47:42;;;;;;;22.70;10.23;;;;;;;;;;5092119;28;20016;-73
2021/11/18 12:50:08;;;;;;;;;;;;;;;;;;5093244;28;20020;-72
2021/11/18 12:52:34;;;;;;;20.65;8.43;;;;;;;;;;5091421;28;19911;-71
2021/11/18 12:55:12;;;;;;;19.77;8.43;;;;;;;;;;5090898;28;20104;-71
2021/11/18 12:57:40;;;;;;;21.77;7.88;;;;;;;;;;5092061;28;20052;-71
2021/11/18 13:00:29;;;;;;;17.30;7.45;;;;;;;;;;5091916;28;20028;-75
2021/11/18 13:05:41;;;;;;;30.55;15.20;;;;;;;;;;5069313;28;20044;-68
2021/11/18 13:08:27;;;;;;;33.72;13.75;;;;;;;;;;5053802;28;20557;-68
2021/11/18 13:10:53;;;;;;;25.10;10.52;;;;;;;;;;5071711;28;20046;-68
2021/11/18 13:13:25;;;;;;;23.38;10.20;;;;;;;;;;5070868;28;20520;-67
2021/11/18 13:15:51;;;;;;;29.13;13.90;;;;;;;;;;5071537;28;20020;-65
2021/11/18 13:18:26;;;;;;;21.60;9.38;;;;;;;;;;5070208;28;20386;-65
2021/11/18 13:21:01;;;;;;;16.42;7.50;;;;;;;;;;5071521;28;20020;-68
2021/11/18 13:23:35;;;;;;;29.13;14.00;;;;;;;;;;5069101;28;20024;-68
2021/11/18 13:26:04;;;;;;;19.58;7.88;;;;;;;;;;5070276;28;20033;-69
2021/11/18 13:28:46;;;;;;;19.73;8.68;;;;;;;;;;5064096;28;20032;-68
2021/11/18 13:31:12;;;;;;;15.85;8.43;;;;;;;;;;5071701;28;20031;-68
2021/11/18 13:33:43;;;;;;;27.95;12.25;;;;;;;;;;5063734;28;20032;-71
2021/11/18 13:36:18;;;;;;;19.95;7.20;;;;;;;;;;5068175;28;20479;-67
2021/11/18 13:38:56;;;;;;;22.42;9.45;;;;;;;;;;5050874;28;20130;-66
2021/11/18 13:41:51;;;;;;;14.93;7.90;;;;;;;;;;5051144;28;20033;-69
2021/11/18 13:44:35;;;;;;;15.38;7.18;;;;;;;;;;5038639;28;20091;-69
2021/11/18 13:47:05;;;;;;;14.07;7.25;;;;;;;;;;5071178;28;20574;-69
2021/11/18 13:49:32;;;;;;;22.70;10.38;;;;;;;;;;5071470;28;20016;-68
2021/11/18 13:52:11;;;;;;;18.98;8.25;;;;;;;;;;5071342;28;20025;-68
2021/11/18 13:54:39;;;;;;;21.23;10.30;;;;;;;;;;5075450;28;20027;-71
2021/11/18 13:57:13;;;;;;;21.25;9.02;;;;;;;;;;5075047;28;20071;-70
2021/11/18 13:59:48;;;;;;;21.27;7.18;;;;;;;;;;5074620;28;20020;-72
2021/11/18 14:02:24;;;;;;;20.50;7.68;;;;;;;;;;5074359;28;20043;-71
2021/11/18 14:05:01;;;;;;;23.48;10.27;;;;;;;;;;5075080;28;20068;-70
2021/11/18 14:07:29;;;;;;;21.13;9.25;;;;;;;;;;5075205;28;20035;-69
2021/11/18 14:09:59;;;;;;;14.35;6.10;;;;;;;;;;5074858;28;20042;-70
2021/11/18 14:12:36;;;;;;;15.70;7.50;;;;;;;;;;5072171;28;20482;-69
2021/11/18 14:15:08;;;;;;;16.30;7.18;;;;;;;;;;5074804;28;20029;-71
2021/11/18 14:17:34;;;;;;;13.82;6.72;;;;;;;;;;5073726;28;20032;-69
2021/11/18 14:20:19;;;;;;;17.33;8.27;;;;;;;;;;5073708;28;20047;-70
2021/11/18 14:22:46;;;;;;;16.40;6.07;;;;;;;;;;5074218;28;20059;-70
2021/11/18 14:25:28;;;;;;;24.13;8.07;;;;;;;;;;5074866;28;20036;-71
2021/11/18 14:27:53;;;;;;;;;;;;;;;;;;5074841;28;20024;-71
2021/11/18 14:30:38;;;;;;;19.48;6.47;;;;;;;;;;5074635;28;20270;-69
2021/11/18 14:33:11;;;;;;;14.52;7.93;;;;;;;;;;5073876;28;20478;-69
2021/11/18 14:35:40;;;;;;;17.52;7.60;;;;;;;;;;5074855;28;20017;-69
2021/11/18 14:38:20;;;;;;;20.58;9.52;;;;;;;;;;5074561;28;20394;-71